createdAt,value
2022-11-05T00:03:45.116Z,8.88
2022-11-05T00:09:06.809Z,8.82
2022-11-05T00:14:29.548Z,10.05
2022-11-05T00:19:33.726Z,11.02
2022-11-05T00:24:55.646Z,9.23
2022-11-05T00:30:01.200Z,10.75
2022-11-05T00:35:05.864Z,11.07
2022-11-05T00:40:11.922Z,11.38
2022-11-05T00:45:21.853Z,13.70
2022-11-05T00:50:26.192Z,10.73
2022-11-05T00:55:34.786Z,12.75
2022-11-05T01:00:44.727Z,13.67
2022-11-05T01:05:51.114Z,13.13
2022-11-05T01:10:57.589Z,24.35
2022-11-05T01:16:07.359Z,15.95
2022-11-05T01:21:12.752Z,13.00
2022-11-05T01:26:17.145Z,10.15
2022-11-05T01:31:22.875Z,10.15
2022-11-05T01:36:26.874Z,11.32
2022-11-05T01:41:31.449Z,11.02
2022-11-05T01:46:41.279Z,10.07
2022-11-05T01:51:47.039Z,9.82
2022-11-05T01:56:55.301Z,11.18
2022-11-05T02:02:02.363Z,11.27
2022-11-05T02:07:08.957Z,12.68
2022-11-05T02:12:15.053Z,12.32
2022-11-05T02:17:31.633Z,10.73
2022-11-05T02:22:58.876Z,9.20
2022-11-05T02:28:28.114Z,8.32
2022-11-05T02:33:56.840Z,9.97
2022-11-05T02:39:13.150Z,8.50
2022-11-05T02:44:32.264Z,9.65
2022-11-05T02:49:48.179Z,9.87
2022-11-05T02:55:00.628Z,9.80
2022-11-05T03:00:08.102Z,19.60
2022-11-05T03:05:13.684Z,10.65
2022-11-05T03:10:44.533Z,9.00
2022-11-05T03:15:58.259Z,8.93
2022-11-05T03:21:07.754Z,10.27
2022-11-05T03:31:18.816Z,9.18
2022-11-05T03:36:28.857Z,10.15
2022-11-05T03:41:35.509Z,11.75
2022-11-05T03:46:45.242Z,17.38
2022-11-05T03:51:58.428Z,12.68
2022-11-05T03:57:08.821Z,9.80
2022-11-05T04:02:15.141Z,9.25
2022-11-05T04:07:40.327Z,8.13
2022-11-05T04:13:01.645Z,7.38
2022-11-05T04:18:05.619Z,6.53
2022-11-05T04:23:36.969Z,7.97
2022-11-05T04:28:54.714Z,12.35
2022-11-05T04:33:58.592Z,16.88
2022-11-05T04:39:04.059Z,28.48
2022-11-05T04:44:09.525Z,15.60
2022-11-05T04:49:13.707Z,11.88
2022-11-05T04:54:19.134Z,10.32
2022-11-05T04:59:23.556Z,9.48
2022-11-05T05:04:27.544Z,8.93
2022-11-05T05:09:32.884Z,9.88
2022-11-05T05:14:38.333Z,13.27
2022-11-05T05:19:59.639Z,16.67
2022-11-05T05:25:05.942Z,13.05
2022-11-05T05:30:11.326Z,12.82
2022-11-05T05:35:16.213Z,14.57
2022-11-05T05:40:21.580Z,17.52
2022-11-05T05:45:25.627Z,9.80
2022-11-05T05:50:29.534Z,9.82
2022-11-05T05:55:34.900Z,9.80
2022-11-05T06:00:38.911Z,11.20
2022-11-05T06:05:42.802Z,14.27
2022-11-05T06:10:53.246Z,16.17
2022-11-05T06:16:02.178Z,17.98
2022-11-05T06:21:09.132Z,24.90
2022-11-05T06:26:16.711Z,19.08
2022-11-05T06:31:20.654Z,34.20
2022-11-05T06:36:24.601Z,21.92
2022-11-05T06:41:29.955Z,20.75
2022-11-05T06:46:33.848Z,17.63
2022-11-05T06:51:38.244Z,14.23
2022-11-05T06:56:43.627Z,13.32
2022-11-05T07:01:47.677Z,12.63
2022-11-05T07:06:54.806Z,23.65
2022-11-05T07:12:03.452Z,20.20
2022-11-05T07:17:07.668Z,13.50
2022-11-05T07:22:12.085Z,13.30
2022-11-05T07:27:17.839Z,12.48
2022-11-05T07:32:21.844Z,10.23
2022-11-05T07:37:26.300Z,11.10
2022-11-05T07:42:32.139Z,12.38
2022-11-05T07:47:40.507Z,11.15
2022-11-05T07:52:45.153Z,12.17
2022-11-05T07:57:52.045Z,12.30
2022-11-05T08:03:07.186Z,10.10
2022-11-05T08:08:14.397Z,11.25
2022-11-05T08:13:20.049Z,10.65
2022-11-05T08:18:31.243Z,11.30
2022-11-05T08:23:35.464Z,10.95
2022-11-05T08:28:43.956Z,9.85
2022-11-05T08:33:48.625Z,10.88
2022-11-05T08:38:53.125Z,9.63
2022-11-05T08:43:59.975Z,10.40
2022-11-05T08:49:04.408Z,9.50
2022-11-05T08:54:08.604Z,8.10
2022-11-05T08:59:13.953Z,8.73
2022-11-05T09:04:18.728Z,8.38
2022-11-05T09:09:22.894Z,8.38
2022-11-05T09:14:30.205Z,8.48
2022-11-05T09:19:39.989Z,8.65
2022-11-05T09:24:45.473Z,7.03
2022-11-05T09:29:50.836Z,8.43
2022-11-05T09:34:54.923Z,8.35
2022-11-05T09:39:59.239Z,8.20
2022-11-05T09:45:09.101Z,8.25
2022-11-05T09:50:16.729Z,9.65
2022-11-05T09:55:25.232Z,8.57
2022-11-05T10:00:32.767Z,8.27
2022-11-05T10:05:39.997Z,7.70
2022-11-05T10:10:48.860Z,5.15
2022-11-05T10:16:02.618Z,5.28
2022-11-05T10:21:09.646Z,3.65
2022-11-05T10:26:19.909Z,4.43
2022-11-05T10:31:29.318Z,3.53
2022-11-05T10:36:38.704Z,4.43
2022-11-05T10:42:04.135Z,4.55
2022-11-05T10:47:30.479Z,3.65
2022-11-05T10:52:37.304Z,2.85
2022-11-05T10:57:42.787Z,3.22
2022-11-05T11:02:51.967Z,2.83
2022-11-05T11:08:01.633Z,2.78
2022-11-05T11:13:06.592Z,3.22
2022-11-05T11:18:28.083Z,3.88
2022-11-05T11:23:38.505Z,1.77
2022-11-05T11:28:49.709Z,3.10
2022-11-05T11:34:03.560Z,2.38
2022-11-05T11:39:08.581Z,2.17
2022-11-05T11:44:17.357Z,2.88
2022-11-05T11:49:34.598Z,3.90
2022-11-05T11:54:38.730Z,2.70
2022-11-05T12:00:07.337Z,2.30
2022-11-05T12:05:30.483Z,2.15
2022-11-05T12:10:49.522Z,1.75
2022-11-05T12:21:34.826Z,2.35
2022-11-05T12:26:55.971Z,1.98
2022-11-05T12:32:23.579Z,2.85
2022-11-05T12:37:35.100Z,3.45
2022-11-05T12:42:50.364Z,3.88
2022-11-05T12:48:08.945Z,3.85
2022-11-05T12:53:43.436Z,4.28
2022-11-05T12:58:52.149Z,3.47
2022-11-05T13:04:00.353Z,4.10
2022-11-05T13:09:13.892Z,4.88
2022-11-05T13:14:22.873Z,4.55
2022-11-05T13:24:45.554Z,4.32
2022-11-05T13:29:54.344Z,6.30
2022-11-05T13:35:00.994Z,7.18
2022-11-05T13:40:11.341Z,9.02
2022-11-05T13:45:49.149Z,8.32
2022-11-05T13:51:38.877Z,8.68
2022-11-05T13:57:00.535Z,9.15
2022-11-05T14:02:15.627Z,9.23
2022-11-05T14:07:24.226Z,10.32
2022-11-05T14:12:32.768Z,11.00
2022-11-05T14:17:56.512Z,10.43
2022-11-05T14:23:37.912Z,10.90
2022-11-05T14:28:49.255Z,12.05
2022-11-05T14:34:02.222Z,11.43
2022-11-05T14:39:21.809Z,11.43
2022-11-05T14:44:29.911Z,11.68
2022-11-05T14:49:37.397Z,27.63
2022-11-05T14:54:45.413Z,21.20
2022-11-05T14:59:58.797Z,23.90
2022-11-05T15:05:45.642Z,23.75
2022-11-05T15:10:51.985Z,24.42
2022-11-05T15:15:59.101Z,21.88
2022-11-05T15:21:05.614Z,31.60
2022-11-05T15:26:16.167Z,33.65
2022-11-05T15:31:33.418Z,28.60
2022-11-05T15:36:37.463Z,32.10
2022-11-05T15:41:42.289Z,31.52
2022-11-05T15:46:47.975Z,26.17
2022-11-05T15:51:54.645Z,28.55
2022-11-05T15:57:00.813Z,29.90
2022-11-05T16:02:24.362Z,34.38
2022-11-05T16:07:29.707Z,34.47
2022-11-05T16:12:36.781Z,27.88
2022-11-05T16:17:53.635Z,20.40
2022-11-05T16:23:00.085Z,21.33
2022-11-05T16:28:04.414Z,25.13
2022-11-05T16:33:14.905Z,23.63
2022-11-05T16:38:20.116Z,32.42
2022-11-05T16:43:27.170Z,39.85
2022-11-05T16:48:34.862Z,46.38
2022-11-05T16:53:38.969Z,36.08
2022-11-05T16:58:46.225Z,37.08
2022-11-05T17:03:54.342Z,38.63
2022-11-05T17:08:58.818Z,36.63
2022-11-05T17:14:05.127Z,35.17
2022-11-05T17:19:15.295Z,36.72
2022-11-05T17:24:19.500Z,32.72
2022-11-05T17:29:23.706Z,37.58
2022-11-05T17:34:32.088Z,31.10
2022-11-05T17:39:36.321Z,30.08
2022-11-05T17:44:42.285Z,43.47
2022-11-05T17:49:47.645Z,37.15
2022-11-05T17:54:51.802Z,37.45
2022-11-05T17:59:56.822Z,44.38
2022-11-05T18:05:02.471Z,42.65
2022-11-05T18:10:07.274Z,40.20
2022-11-05T18:15:12.058Z,49.95
2022-11-05T18:20:19.764Z,44.97
2022-11-05T18:25:24.336Z,42.25
2022-11-05T18:30:28.407Z,28.45
2022-11-05T18:35:35.597Z,20.88
2022-11-05T18:40:40.050Z,17.48
2022-11-05T18:45:44.322Z,40.55
2022-11-05T18:50:49.732Z,46.95
2022-11-05T18:55:54.473Z,51.08
2022-11-05T19:01:02.500Z,56.42
2022-11-05T19:06:11.929Z,61.40
2022-11-05T19:11:19.213Z,65.28
2022-11-05T19:16:27.092Z,67.95
2022-11-05T19:21:32.867Z,61.53
2022-11-05T19:26:36.890Z,60.75
2022-11-05T19:31:40.880Z,54.92
2022-11-05T19:36:46.426Z,58.95
2022-11-05T19:41:51.515Z,59.80
2022-11-05T19:46:55.560Z,53.58
2022-11-05T19:52:01.580Z,56.30
2022-11-05T19:57:06.495Z,54.72
2022-11-05T20:02:15.958Z,40.13
2022-11-05T20:07:21.969Z,47.53
2022-11-05T20:12:26.794Z,41.22
2022-11-05T20:17:32.379Z,38.53
2022-11-05T20:22:38.633Z,29.92
2022-11-05T20:27:45.300Z,38.72
2022-11-05T20:32:49.257Z,34.88
2022-11-05T20:37:55.469Z,29.27
2022-11-05T20:43:03.365Z,29.27
2022-11-05T20:48:09.828Z,25.92
2022-11-05T20:53:15.404Z,23.30
2022-11-05T20:58:19.608Z,24.80
2022-11-05T21:03:27.247Z,19.77
2022-11-05T21:08:36.579Z,19.13
2022-11-05T21:18:47.181Z,15.88
2022-11-05T21:23:52.525Z,15.40
2022-11-05T21:28:56.460Z,13.93
2022-11-05T21:34:00.575Z,15.80
2022-11-05T21:39:12.068Z,18.15
2022-11-05T21:44:17.983Z,17.73
2022-11-05T21:49:21.890Z,16.85
2022-11-05T21:54:44.776Z,12.90
2022-11-05T21:59:57.730Z,8.20
2022-11-05T22:05:02.648Z,8.85
2022-11-05T22:10:15.849Z,8.18
2022-11-05T22:15:20.868Z,8.07
2022-11-05T22:20:25.271Z,9.63
2022-11-05T22:25:30.780Z,9.00
2022-11-05T22:30:34.772Z,7.55
2022-11-05T22:35:40.517Z,6.97
2022-11-05T22:40:46.799Z,8.10
2022-11-05T22:45:50.972Z,8.15
2022-11-05T22:50:54.939Z,7.07
2022-11-05T22:56:00.301Z,7.22
2022-11-05T23:01:04.989Z,6.90
2022-11-05T23:06:31.915Z,6.25
2022-11-05T23:11:40.074Z,5.95
2022-11-05T23:17:01.597Z,6.15
2022-11-05T23:22:24.578Z,6.63
2022-11-05T23:27:32.083Z,5.68
2022-11-05T23:32:36.806Z,5.40
2022-11-05T23:37:58.086Z,6.10
2022-11-05T23:43:20.570Z,5.22
2022-11-05T23:48:28.719Z,5.68
2022-11-05T23:53:34.995Z,5.20
2022-11-05T23:58:42.017Z,4.65
